createdAt,value
2019-01-16T00:01:08.225Z,5.37
2019-01-16T00:06:17.676Z,4.83
2019-01-16T00:11:21.027Z,5.70
2019-01-16T00:16:27.524Z,5.43
2019-01-16T00:21:25.137Z,5.63
2019-01-16T00:26:39.387Z,5.10
2019-01-16T00:31:36.998Z,5.33
2019-01-16T00:36:43.340Z,4.90
2019-01-16T00:41:43.894Z,5.30
2019-01-16T00:46:56.572Z,5.23
2019-01-16T00:51:57.169Z,5.40
2019-01-16T00:56:57.635Z,4.90
2019-01-16T01:02:06.990Z,5.53
2019-01-16T01:07:13.739Z,4.70
2019-01-16T01:12:17.311Z,4.57
2019-01-16T01:17:20.534Z,4.40
2019-01-16T01:22:35.885Z,4.57
2019-01-16T01:27:33.509Z,4.80
2019-01-16T01:32:31.190Z,4.80
2019-01-16T01:37:45.435Z,4.97
2019-01-16T01:42:43.029Z,4.93
2019-01-16T01:47:40.894Z,4.23
2019-01-16T01:52:38.505Z,4.10
2019-01-16T01:57:41.979Z,4.40
2019-01-16T02:02:42.742Z,4.10
2019-01-16T02:07:46.091Z,4.37
2019-01-16T02:12:49.369Z,4.27
2019-01-16T02:17:46.965Z,4.43
2019-01-16T02:22:44.769Z,4.10
2019-01-16T02:27:45.384Z,4.50
2019-01-16T02:32:59.563Z,4.40
2019-01-16T02:38:13.660Z,3.67
2019-01-16T02:43:11.275Z,4.47
2019-01-16T02:48:14.501Z,4.20
2019-01-16T02:53:12.131Z,3.87
2019-01-16T02:58:12.765Z,4.53
2019-01-16T03:03:22.348Z,3.97
2019-01-16T03:08:22.631Z,4.00
2019-01-16T03:13:22.903Z,4.17
2019-01-16T03:18:20.512Z,4.10
2019-01-16T03:23:18.302Z,4.37
2019-01-16T03:28:34.170Z,4.00
2019-01-16T03:33:48.040Z,4.30
2019-01-16T03:39:00.705Z,3.30
2019-01-16T03:44:01.529Z,3.80
2019-01-16T03:49:12.923Z,4.57
2019-01-16T03:54:21.504Z,4.13
2019-01-16T03:59:19.203Z,4.23
2019-01-16T04:04:16.840Z,4.47
2019-01-16T04:09:14.443Z,3.97
2019-01-16T04:14:20.859Z,4.00
2019-01-16T04:19:21.870Z,4.80
2019-01-16T04:24:19.981Z,4.33
2019-01-16T04:29:26.497Z,3.77
2019-01-16T04:34:29.965Z,4.30
2019-01-16T04:39:43.799Z,3.50
2019-01-16T04:44:50.165Z,4.37
2019-01-16T04:50:00.113Z,3.90
2019-01-16T04:55:03.838Z,4.47
2019-01-16T05:00:08.626Z,4.00
2019-01-16T05:05:12.917Z,4.33
2019-01-16T05:10:13.389Z,4.70
2019-01-16T05:15:17.063Z,5.07
2019-01-16T05:20:31.386Z,5.20
2019-01-16T05:25:28.995Z,4.90
2019-01-16T05:30:38.646Z,4.70
2019-01-16T05:35:44.918Z,4.47
2019-01-16T05:40:54.224Z,4.70
2019-01-16T05:45:51.835Z,4.43
2019-01-16T05:50:52.147Z,4.60
2019-01-16T05:56:04.796Z,5.00
2019-01-16T06:01:05.569Z,4.70
2019-01-16T06:06:03.303Z,4.80
2019-01-16T06:11:07.049Z,4.60
2019-01-16T06:16:10.739Z,4.60
2019-01-16T06:21:11.220Z,5.10
2019-01-16T06:26:20.860Z,5.20
2019-01-16T06:31:34.757Z,6.40
2019-01-16T06:36:35.289Z,5.03
2019-01-16T06:41:32.923Z,4.60
2019-01-16T06:46:48.536Z,4.53
2019-01-16T06:51:48.863Z,4.77
2019-01-16T06:56:55.366Z,5.13
2019-01-16T07:02:09.559Z,4.50
2019-01-16T07:07:07.143Z,4.70
2019-01-16T07:12:21.121Z,4.90
2019-01-16T07:17:35.407Z,4.50
2019-01-16T07:22:33.021Z,5.73
2019-01-16T07:27:45.554Z,4.40
2019-01-16T07:32:43.173Z,4.40
2019-01-16T07:37:58.559Z,5.03
2019-01-16T07:43:07.897Z,5.10
2019-01-16T07:48:11.179Z,4.73
2019-01-16T07:53:17.789Z,5.57
2019-01-16T07:58:15.507Z,4.90
2019-01-16T08:03:15.742Z,5.83
2019-01-16T08:08:29.915Z,4.83
2019-01-16T08:13:39.511Z,4.20
2019-01-16T08:18:51.914Z,4.90
2019-01-16T08:23:55.405Z,5.10
2019-01-16T08:28:58.813Z,4.00
2019-01-16T08:34:14.524Z,4.07
2019-01-16T08:39:15.021Z,3.27
2019-01-16T08:44:13.860Z,4.07
2019-01-16T08:49:28.129Z,4.47
2019-01-16T08:54:25.855Z,4.30
2019-01-16T08:59:26.398Z,3.83
2019-01-16T09:04:24.021Z,4.80
2019-01-16T09:09:40.571Z,8.77
2019-01-16T09:14:38.253Z,7.03
2019-01-16T09:19:35.863Z,3.63
2019-01-16T09:24:36.331Z,4.23
2019-01-16T09:29:33.965Z,3.80
2019-01-16T09:34:34.573Z,4.23
2019-01-16T09:39:50.245Z,4.40
2019-01-16T09:44:56.747Z,3.87
2019-01-16T09:50:03.336Z,4.00
2019-01-16T09:55:06.828Z,3.73
2019-01-16T10:00:06.312Z,4.33
2019-01-16T10:05:07.043Z,4.07
2019-01-16T10:10:06.548Z,4.07
2019-01-16T10:15:11.893Z,3.27
2019-01-16T10:20:19.139Z,3.37
2019-01-16T10:25:19.677Z,4.40
2019-01-16T10:30:18.909Z,3.33
2019-01-16T10:35:32.782Z,4.03
2019-01-16T10:40:30.447Z,4.47
2019-01-16T10:45:43.096Z,4.20
2019-01-16T10:50:46.585Z,3.90
2019-01-16T10:55:49.917Z,4.03
2019-01-16T11:00:59.484Z,4.27
2019-01-16T11:06:13.377Z,4.00
2019-01-16T11:11:27.555Z,3.90
2019-01-16T11:16:25.226Z,5.30
2019-01-16T11:21:22.847Z,6.00
2019-01-16T11:26:37.242Z,4.30
2019-01-16T11:31:37.749Z,7.10
2019-01-16T11:36:50.414Z,4.67
2019-01-16T11:41:48.202Z,6.73
2019-01-16T11:46:45.961Z,4.67
2019-01-16T11:51:46.207Z,4.80
2019-01-16T11:56:49.871Z,5.10
2019-01-16T12:01:59.248Z,5.40
2019-01-16T12:06:56.850Z,5.33
2019-01-16T12:11:57.305Z,4.30
2019-01-16T12:17:03.626Z,5.10
2019-01-16T12:22:10.214Z,4.53
2019-01-16T12:27:24.585Z,5.00
2019-01-16T12:32:22.207Z,5.70
2019-01-16T12:37:37.987Z,7.00
2019-01-16T12:42:35.557Z,5.33
2019-01-16T12:47:49.443Z,5.47
2019-01-16T12:52:53.961Z,5.70
2019-01-16T12:57:46.619Z,5.87
2019-01-16T13:02:53.223Z,5.63
2019-01-16T13:07:53.745Z,6.87
2019-01-16T13:13:07.590Z,6.40
2019-01-16T13:18:05.336Z,6.77
2019-01-16T13:23:20.581Z,6.87
2019-01-16T13:28:23.933Z,6.53
2019-01-16T13:33:21.502Z,6.47
2019-01-16T13:38:19.213Z,7.17
2019-01-16T13:43:16.783Z,7.80
2019-01-16T13:48:23.043Z,7.30
2019-01-16T13:53:26.405Z,6.93
2019-01-16T13:58:41.849Z,8.20
2019-01-16T14:03:54.416Z,8.50
2019-01-16T14:08:57.739Z,7.53
2019-01-16T14:14:00.679Z,7.73
2019-01-16T14:19:00.759Z,8.20
2019-01-16T14:24:00.999Z,9.00
2019-01-16T14:29:01.450Z,8.87
2019-01-16T14:33:59.413Z,8.47
2019-01-16T14:38:59.982Z,9.07
2019-01-16T14:44:00.265Z,8.23
2019-01-16T14:49:00.717Z,8.37
2019-01-16T14:54:10.332Z,8.60
2019-01-16T14:59:16.679Z,8.87
2019-01-16T15:04:20.219Z,8.90
2019-01-16T15:09:34.042Z,8.73
2019-01-16T15:14:31.649Z,8.20
2019-01-16T15:19:38.558Z,8.43
2019-01-16T15:24:38.778Z,9.43
2019-01-16T15:29:39.328Z,12.60
2019-01-16T15:34:42.673Z,13.37
2019-01-16T15:39:40.237Z,9.33
2019-01-16T15:44:46.737Z,9.43
2019-01-16T15:49:47.525Z,9.00
2019-01-16T15:54:54.052Z,11.97
2019-01-16T15:59:54.539Z,8.00
2019-01-16T16:04:58.163Z,8.97
2019-01-16T16:10:08.049Z,13.63
2019-01-16T16:15:22.151Z,11.60
2019-01-16T16:20:36.559Z,10.67
2019-01-16T16:25:34.146Z,8.17
2019-01-16T16:30:48.063Z,6.63
2019-01-16T16:35:54.745Z,6.80
2019-01-16T16:41:04.221Z,5.83
2019-01-16T16:46:13.862Z,6.17
2019-01-16T16:51:14.107Z,6.07
2019-01-16T16:56:20.420Z,6.13
2019-01-16T17:01:18.041Z,6.90
2019-01-16T17:06:30.711Z,6.70
2019-01-16T17:11:31.187Z,6.67
2019-01-16T17:16:31.827Z,5.73
2019-01-16T17:21:29.519Z,6.33
2019-01-16T17:26:29.994Z,6.77
2019-01-16T17:31:27.631Z,7.00
2019-01-16T17:36:27.891Z,6.73
2019-01-16T17:41:25.495Z,6.03
2019-01-16T17:46:23.106Z,7.13
2019-01-16T17:51:26.855Z,7.37
2019-01-16T17:56:24.468Z,8.00
2019-01-16T18:01:30.758Z,7.60
2019-01-16T18:06:45.025Z,7.53
2019-01-16T18:11:48.597Z,7.93
2019-01-16T18:16:55.137Z,8.23
2019-01-16T18:21:55.645Z,8.00
2019-01-16T18:27:02.171Z,8.23
2019-01-16T18:32:16.465Z,8.10
2019-01-16T18:37:17.023Z,7.90
2019-01-16T18:42:32.611Z,8.13
2019-01-16T18:47:39.159Z,7.67
2019-01-16T18:52:36.779Z,7.77
2019-01-16T18:57:37.296Z,8.67
2019-01-16T19:02:49.667Z,8.07
2019-01-16T19:07:47.277Z,8.03
2019-01-16T19:12:44.910Z,8.17
2019-01-16T19:17:42.596Z,7.70
2019-01-16T19:22:49.125Z,7.90
2019-01-16T19:28:03.253Z,8.13
2019-01-16T19:33:00.891Z,8.47
2019-01-16T19:38:15.027Z,8.33
2019-01-16T19:43:29.152Z,7.87
2019-01-16T19:48:26.885Z,8.03
2019-01-16T19:53:42.553Z,8.13
2019-01-16T19:58:56.751Z,8.43
2019-01-16T20:04:00.384Z,12.57
2019-01-16T20:09:03.920Z,12.00
2019-01-16T20:14:04.232Z,16.67
2019-01-16T20:19:16.672Z,9.50
2019-01-16T20:24:14.383Z,10.10
2019-01-16T20:29:14.633Z,8.83
2019-01-16T20:34:30.263Z,7.90
2019-01-16T20:39:33.490Z,7.43
2019-01-16T20:44:36.878Z,7.77
2019-01-16T20:49:34.568Z,8.90
2019-01-16T20:54:35.077Z,8.63
2019-01-16T20:59:49.293Z,9.37
2019-01-16T21:04:46.951Z,10.10
2019-01-16T21:09:56.734Z,10.30
2019-01-16T21:14:54.316Z,9.17
2019-01-16T21:20:00.915Z,7.70
2019-01-16T21:25:07.440Z,8.60
2019-01-16T21:30:09.792Z,8.40
2019-01-16T21:35:10.269Z,9.30
2019-01-16T21:40:16.033Z,9.90
2019-01-16T21:45:13.808Z,10.43
2019-01-16T21:50:14.375Z,8.90
2019-01-16T21:55:28.261Z,7.40
2019-01-16T22:00:43.849Z,7.67
2019-01-16T22:05:41.643Z,7.80
2019-01-16T22:10:42.135Z,6.90
2019-01-16T22:15:46.318Z,6.83
2019-01-16T22:20:49.602Z,7.13
2019-01-16T22:25:50.077Z,7.87
2019-01-16T22:30:50.710Z,8.00
2019-01-16T22:35:48.591Z,7.33
2019-01-16T22:40:55.088Z,7.57
2019-01-16T22:46:04.740Z,7.27
2019-01-16T22:51:08.075Z,7.50
2019-01-16T22:56:11.605Z,6.83
2019-01-16T23:01:16.908Z,6.63
2019-01-16T23:06:17.179Z,6.83
2019-01-16T23:11:15.026Z,6.50
2019-01-16T23:16:21.268Z,6.63
2019-01-16T23:21:18.904Z,6.47
2019-01-16T23:26:22.587Z,6.93
2019-01-16T23:31:36.929Z,6.13
2019-01-16T23:36:51.041Z,6.47
2019-01-16T23:42:00.996Z,5.67
2019-01-16T23:47:10.349Z,6.40
2019-01-16T23:52:08.083Z,6.23
2019-01-16T23:57:22.219Z,5.97
